createdAt,value
2018-09-19T00:00:19.588Z,68.72
2018-09-19T00:02:48.146Z,68.74
2018-09-19T00:05:16.745Z,68.91
2018-09-19T00:07:45.315Z,69.47
2018-09-19T00:10:13.887Z,69.86
2018-09-19T00:12:42.424Z,70.02
2018-09-19T00:15:10.986Z,70.44
2018-09-19T00:17:39.561Z,70.53
2018-09-19T00:20:08.200Z,70.75
2018-09-19T00:22:36.772Z,70.72
2018-09-19T00:25:05.385Z,70.88
2018-09-19T00:27:33.970Z,70.76
2018-09-19T00:30:02.497Z,70.94
2018-09-19T00:32:31.087Z,71.09
2018-09-19T00:34:59.660Z,71.23
2018-09-19T00:37:28.272Z,71.76
2018-09-19T00:39:56.850Z,71.47
2018-09-19T00:42:25.445Z,71.84
2018-09-19T00:44:54.001Z,71.51
2018-09-19T00:47:22.598Z,71.50
2018-09-19T00:49:51.153Z,71.55
2018-09-19T00:52:19.737Z,71.14
2018-09-19T00:54:48.306Z,71.53
2018-09-19T00:57:16.956Z,72.05
2018-09-19T00:59:45.530Z,72.73
2018-09-19T01:02:14.133Z,73.70
2018-09-19T01:04:42.721Z,73.62
2018-09-19T01:07:11.343Z,74.18
2018-09-19T01:09:39.923Z,74.52
2018-09-19T01:12:08.515Z,74.90
2018-09-19T01:14:37.053Z,74.73
2018-09-19T01:17:05.688Z,75.31
2018-09-19T01:19:34.240Z,74.73
2018-09-19T01:22:02.861Z,75.79
2018-09-19T01:24:31.439Z,76.04
2018-09-19T01:27:00.065Z,75.61
2018-09-19T01:29:28.604Z,75.82
2018-09-19T01:31:57.222Z,75.93
2018-09-19T01:34:25.796Z,75.16
2018-09-19T01:36:54.404Z,74.74
2018-09-19T01:39:22.957Z,74.03
2018-09-19T01:41:51.549Z,74.11
2018-09-19T01:44:20.125Z,74.17
2018-09-19T01:46:48.681Z,73.95
2018-09-19T01:49:17.252Z,74.72
2018-09-19T01:51:45.894Z,75.99
2018-09-19T01:54:14.463Z,76.01
2018-09-19T01:56:43.062Z,77.21
2018-09-19T01:59:11.634Z,77.14
2018-09-19T02:01:40.289Z,76.04
2018-09-19T02:04:08.801Z,77.33
2018-09-19T02:06:37.387Z,78.12
2018-09-19T02:09:09.123Z,78.09
2018-09-19T02:11:37.826Z,79.30
2018-09-19T02:14:06.671Z,78.72
2018-09-19T02:16:35.272Z,79.51
2018-09-19T02:19:03.866Z,78.67
2018-09-19T02:21:32.458Z,78.14
2018-09-19T02:24:01.076Z,78.89
2018-09-19T02:26:29.604Z,78.94
2018-09-19T02:28:58.224Z,77.94
2018-09-19T02:31:27.119Z,78.67
2018-09-19T02:33:56.144Z,79.96
2018-09-19T02:36:26.041Z,80.55
2018-09-19T02:38:56.702Z,79.65
2018-09-19T02:41:25.300Z,80.71
2018-09-19T02:43:53.931Z,80.14
2018-09-19T02:46:22.514Z,79.67
2018-09-19T02:48:51.117Z,79.64
2018-09-19T02:51:19.665Z,79.13
2018-09-19T02:53:48.896Z,79.06
2018-09-19T02:56:17.509Z,77.92
2018-09-19T02:58:46.104Z,78.92
2018-09-19T03:01:14.662Z,78.72
2018-09-19T03:03:43.281Z,78.37
2018-09-19T03:06:11.857Z,79.02
2018-09-19T03:08:40.442Z,81.13
2018-09-19T03:11:09.001Z,82.06
2018-09-19T03:13:37.648Z,82.70
2018-09-19T03:16:06.213Z,83.31
2018-09-19T03:18:34.806Z,84.06
2018-09-19T03:21:03.363Z,84.64
2018-09-19T03:23:31.949Z,84.59
2018-09-19T03:26:00.491Z,84.75
2018-09-19T03:28:29.076Z,84.39
2018-09-19T03:30:57.626Z,83.72
2018-09-19T03:33:26.196Z,83.07
2018-09-19T03:35:54.765Z,82.30
2018-09-19T03:38:23.408Z,82.93
2018-09-19T03:40:51.983Z,82.48
2018-09-19T03:43:20.567Z,81.88
2018-09-19T03:45:49.153Z,81.83
2018-09-19T03:48:17.746Z,82.19
2018-09-19T03:50:46.328Z,82.46
2018-09-19T03:53:14.911Z,83.35
2018-09-19T03:55:43.497Z,84.40
2018-09-19T03:58:12.101Z,83.58
2018-09-19T04:00:40.739Z,83.62
2018-09-19T04:03:09.357Z,83.74
2018-09-19T04:05:37.944Z,83.55
2018-09-19T04:08:06.668Z,83.68
2018-09-19T04:10:35.264Z,83.88
2018-09-19T04:13:03.875Z,84.03
2018-09-19T04:15:32.420Z,84.47
2018-09-19T04:18:01.013Z,83.50
2018-09-19T04:20:29.599Z,83.43
2018-09-19T04:22:58.503Z,83.14
2018-09-19T04:25:27.070Z,83.33
2018-09-19T04:27:55.625Z,83.36
2018-09-19T04:30:24.231Z,83.96
2018-09-19T04:32:52.873Z,83.65
2018-09-19T04:35:21.474Z,83.77
2018-09-19T04:37:50.054Z,84.43
2018-09-19T04:40:18.680Z,83.81
2018-09-19T04:42:47.216Z,83.15
2018-09-19T04:45:15.912Z,83.71
2018-09-19T04:47:44.422Z,82.44
2018-09-19T04:50:13.008Z,82.23
2018-09-19T04:52:41.576Z,82.94
2018-09-19T04:55:10.577Z,81.48
2018-09-19T04:57:42.979Z,81.43
2018-09-19T05:00:11.603Z,82.10
2018-09-19T05:02:40.741Z,82.18
2018-09-19T05:05:09.806Z,82.25
2018-09-19T05:07:47.660Z,81.96
2018-09-19T05:10:16.336Z,82.05
2018-09-19T05:12:45.016Z,81.36
2018-09-19T05:15:14.200Z,82.25
2018-09-19T05:17:43.016Z,82.80
2018-09-19T05:20:11.590Z,81.92
2018-09-19T05:22:40.163Z,81.59
2018-09-19T05:25:09.834Z,80.18
2018-09-19T05:27:38.424Z,79.77
2018-09-19T05:30:07.733Z,78.90
2018-09-19T05:32:36.355Z,79.39
2018-09-19T05:35:08.250Z,79.84
2018-09-19T05:37:38.640Z,78.67
2018-09-19T05:40:07.272Z,80.42
2018-09-19T05:42:35.840Z,80.44
2018-09-19T05:45:04.551Z,80.54
2018-09-19T05:47:33.115Z,79.73
2018-09-19T05:50:01.723Z,80.23
2018-09-19T05:52:30.286Z,80.02
2018-09-19T05:55:00.077Z,81.50
2018-09-19T05:57:30.196Z,80.19
2018-09-19T05:59:58.837Z,80.52
2018-09-19T06:02:27.388Z,81.72
2018-09-19T06:04:56.576Z,81.54
2018-09-19T06:07:25.299Z,80.42
2018-09-19T06:09:53.918Z,80.87
2018-09-19T06:12:22.477Z,80.97
2018-09-19T06:14:51.068Z,80.54
2018-09-19T06:17:19.747Z,81.09
2018-09-19T06:19:48.482Z,79.88
2018-09-19T06:22:17.042Z,80.85
2018-09-19T06:24:45.648Z,80.96
2018-09-19T06:27:14.259Z,80.86
2018-09-19T06:29:42.874Z,80.63
2018-09-19T06:32:12.093Z,80.25
2018-09-19T06:34:40.717Z,80.99
2018-09-19T06:37:09.400Z,80.08
2018-09-19T06:39:38.002Z,80.79
2018-09-19T06:42:06.624Z,80.52
2018-09-19T06:44:35.252Z,79.94
2018-09-19T06:47:03.929Z,78.37
2018-09-19T06:49:32.476Z,77.17
2018-09-19T06:52:01.134Z,77.56
2018-09-19T06:54:29.652Z,76.98
2018-09-19T06:56:58.258Z,77.18
2018-09-19T06:59:26.816Z,76.90
2018-09-19T07:01:55.409Z,77.02
2018-09-19T07:04:23.988Z,74.20
2018-09-19T07:06:52.648Z,74.07
2018-09-19T07:09:21.212Z,72.54
2018-09-19T07:11:49.781Z,72.16
2018-09-19T07:14:18.439Z,71.69
2018-09-19T07:16:47.010Z,71.08
2018-09-19T07:19:15.564Z,70.31
2018-09-19T07:21:44.133Z,71.01
2018-09-19T07:24:12.672Z,71.69
2018-09-19T07:26:41.283Z,72.02
2018-09-19T07:29:09.848Z,71.00
2018-09-19T07:31:38.430Z,72.04
2018-09-19T07:34:07.001Z,73.42
2018-09-19T07:36:35.592Z,74.16
2018-09-19T07:39:04.651Z,73.72
2018-09-19T07:41:33.286Z,71.91
2018-09-19T07:44:01.844Z,71.31
2018-09-19T07:46:30.524Z,71.67
2018-09-19T07:48:59.036Z,71.69
2018-09-19T07:51:27.637Z,72.16
2018-09-19T07:53:56.214Z,72.54
2018-09-19T07:56:24.808Z,74.47
2018-09-19T07:58:53.545Z,77.65
2018-09-19T08:01:22.227Z,77.69
2018-09-19T08:03:50.755Z,77.56
2018-09-19T08:06:19.317Z,78.22
2018-09-19T08:08:47.865Z,77.47
2018-09-19T08:11:16.485Z,75.14
2018-09-19T08:13:45.035Z,72.50
2018-09-19T08:16:13.647Z,71.46
2018-09-19T08:18:42.229Z,71.89
2018-09-19T08:21:10.868Z,72.67
2018-09-19T08:23:39.425Z,72.09
2018-09-19T08:26:08.038Z,70.36
2018-09-19T08:28:36.588Z,70.24
2018-09-19T08:31:05.186Z,70.69
2018-09-19T08:33:33.793Z,69.46
2018-09-19T08:36:02.396Z,69.11
2018-09-19T08:38:30.959Z,66.49
2018-09-19T08:40:59.543Z,63.94
2018-09-19T08:43:28.126Z,63.00
2018-09-19T08:45:56.727Z,62.91
2018-09-19T08:48:25.282Z,63.23
2018-09-19T08:50:53.933Z,64.48
2018-09-19T08:53:22.535Z,62.28
2018-09-19T08:55:51.158Z,61.75
2018-09-19T08:58:19.857Z,61.29
2018-09-19T09:00:52.184Z,61.90
2018-09-19T09:03:20.809Z,62.42
2018-09-19T09:05:49.392Z,62.93
2018-09-19T09:08:18.025Z,61.85
2018-09-19T09:10:48.411Z,63.21
2018-09-19T09:13:17.932Z,64.30
2018-09-19T09:15:46.489Z,64.14
2018-09-19T09:18:15.082Z,64.34
2018-09-19T09:20:43.692Z,63.69
2018-09-19T09:23:12.325Z,61.91
2018-09-19T09:25:40.938Z,60.71
2018-09-19T09:28:09.996Z,60.04
2018-09-19T09:30:38.546Z,57.94
2018-09-19T09:33:07.596Z,57.79
2018-09-19T09:35:36.330Z,57.43
2018-09-19T09:38:04.920Z,57.09
2018-09-19T09:40:33.553Z,56.12
2018-09-19T09:43:02.132Z,55.37
2018-09-19T09:45:30.693Z,53.99
2018-09-19T09:47:59.283Z,53.27
2018-09-19T09:50:27.875Z,51.88
2018-09-19T09:52:56.407Z,50.93
2018-09-19T09:55:24.977Z,49.70
2018-09-19T09:57:53.563Z,51.53
2018-09-19T10:00:27.533Z,51.50
2018-09-19T10:02:56.104Z,50.51
2018-09-19T10:05:25.455Z,49.38
2018-09-19T10:07:54.792Z,47.41
2018-09-19T10:10:23.333Z,46.38
2018-09-19T10:12:51.915Z,46.83
2018-09-19T10:15:20.456Z,47.19
2018-09-19T10:17:49.161Z,47.08
2018-09-19T10:20:17.758Z,47.67
2018-09-19T10:22:46.364Z,48.67
2018-09-19T10:25:14.922Z,48.90
2018-09-19T10:27:43.497Z,46.96
2018-09-19T10:30:12.669Z,43.87
2018-09-19T10:32:41.263Z,40.57
2018-09-19T10:35:09.814Z,40.45
2018-09-19T10:37:38.393Z,40.39
2018-09-19T10:40:07.280Z,40.03
2018-09-19T10:42:35.856Z,39.22
2018-09-19T10:45:04.823Z,40.90
2018-09-19T10:47:34.449Z,41.56
2018-09-19T10:50:03.436Z,40.09
2018-09-19T10:52:32.052Z,36.32
2018-09-19T10:55:00.794Z,34.64
2018-09-19T10:57:30.144Z,36.09
2018-09-19T10:59:58.846Z,37.19
2018-09-19T11:02:27.428Z,36.89
2018-09-19T11:04:55.988Z,36.10
2018-09-19T11:07:24.567Z,33.88
2018-09-19T11:09:53.315Z,32.24
2018-09-19T11:12:21.845Z,31.92
2018-09-19T11:14:50.411Z,29.96
2018-09-19T11:17:18.969Z,28.62
2018-09-19T11:19:47.572Z,27.81
2018-09-19T11:22:16.156Z,26.54
2018-09-19T11:24:44.784Z,27.88
2018-09-19T11:27:13.841Z,27.35
2018-09-19T11:29:42.482Z,26.40
2018-09-19T11:32:11.413Z,26.97
2018-09-19T11:34:40.449Z,27.25
2018-09-19T11:37:11.167Z,25.97
2018-09-19T11:39:41.082Z,25.64
2018-09-19T11:42:09.680Z,25.58
2018-09-19T11:44:38.253Z,25.34
2018-09-19T11:47:06.973Z,25.00
2018-09-19T11:49:35.553Z,23.45
2018-09-19T11:52:04.104Z,24.44
2018-09-19T11:54:32.825Z,22.62
2018-09-19T11:57:01.344Z,23.42
2018-09-19T11:59:29.930Z,23.04
2018-09-19T12:01:58.530Z,25.11
2018-09-19T12:04:27.110Z,26.86
2018-09-19T12:06:55.667Z,24.91
2018-09-19T12:09:24.223Z,26.36
2018-09-19T12:11:52.764Z,26.85
2018-09-19T12:14:21.371Z,27.75
2018-09-19T12:16:49.928Z,26.82
2018-09-19T12:19:18.507Z,28.91
2018-09-19T12:21:47.025Z,28.08
2018-09-19T12:24:15.612Z,28.64
2018-09-19T12:26:44.210Z,27.26
2018-09-19T12:29:12.757Z,28.18
2018-09-19T12:31:41.311Z,27.58
2018-09-19T12:34:09.876Z,26.54
2018-09-19T12:36:38.424Z,27.18
2018-09-19T12:39:08.871Z,26.65
2018-09-19T12:41:37.443Z,25.61
2018-09-19T12:44:06.061Z,26.81
2018-09-19T12:46:34.954Z,27.04
2018-09-19T12:49:03.576Z,26.05
2018-09-19T12:51:32.121Z,26.75
2018-09-19T12:54:00.692Z,26.76
2018-09-19T12:56:29.300Z,26.14
2018-09-19T12:58:57.935Z,29.37
2018-09-19T13:01:26.475Z,26.35
2018-09-19T13:03:55.055Z,25.27
2018-09-19T13:06:23.654Z,30.35
2018-09-19T13:08:52.266Z,34.96
2018-09-19T13:11:20.841Z,36.79
2018-09-19T13:13:49.425Z,36.80
2018-09-19T13:16:17.956Z,36.92
2018-09-19T13:18:46.547Z,33.68
2018-09-19T13:21:15.156Z,31.62
2018-09-19T13:23:43.719Z,31.70
2018-09-19T13:26:12.317Z,30.86
2018-09-19T13:28:40.884Z,33.27
2018-09-19T13:31:09.488Z,36.36
2018-09-19T13:33:38.095Z,37.32
2018-09-19T13:36:07.536Z,38.44
2018-09-19T13:38:36.091Z,36.91
2018-09-19T13:41:04.813Z,37.62
2018-09-19T13:43:33.407Z,38.21
2018-09-19T13:46:02.032Z,37.01
2018-09-19T13:48:30.621Z,38.28
2018-09-19T13:51:11.544Z,37.96
2018-09-19T13:53:40.869Z,36.05
2018-09-19T13:56:09.473Z,34.49
2018-09-19T13:58:38.014Z,33.36
2018-09-19T14:01:06.677Z,34.22
2018-09-19T14:03:35.259Z,32.45
2018-09-19T14:06:03.865Z,31.67
2018-09-19T14:08:32.428Z,31.17
2018-09-19T14:11:01.033Z,31.12
2018-09-19T14:13:29.592Z,31.31
2018-09-19T14:15:58.749Z,32.05
2018-09-19T14:18:27.372Z,32.05
2018-09-19T14:20:55.993Z,31.62
2018-09-19T14:23:24.540Z,30.68
2018-09-19T14:25:53.147Z,30.56
2018-09-19T14:28:21.808Z,29.30
2018-09-19T14:30:50.343Z,28.76
2018-09-19T14:33:18.961Z,29.29
2018-09-19T14:35:47.591Z,30.30
2018-09-19T14:38:16.246Z,32.43
2018-09-19T14:40:44.821Z,31.40
2018-09-19T14:43:13.412Z,31.88
2018-09-19T14:45:42.009Z,33.20
2018-09-19T14:48:10.540Z,35.06
2018-09-19T14:50:39.120Z,37.15
2018-09-19T14:53:07.702Z,38.17
2018-09-19T14:55:36.295Z,40.11
2018-09-19T14:58:04.893Z,41.11
2018-09-19T15:00:33.490Z,40.63
2018-09-19T15:03:02.069Z,37.46
2018-09-19T15:05:30.644Z,36.11
2018-09-19T15:07:59.235Z,36.28
2018-09-19T15:11:52.191Z,34.71
2018-09-19T15:14:21.434Z,33.32
2018-09-19T15:16:50.048Z,33.15
2018-09-19T15:19:18.636Z,33.41
2018-09-19T15:21:47.821Z,33.88
2018-09-19T15:24:16.412Z,34.44
2018-09-19T15:26:44.984Z,33.94
2018-09-19T15:29:13.505Z,33.02
2018-09-19T15:31:42.072Z,32.89
2018-09-19T15:34:10.584Z,32.08
2018-09-19T15:36:41.369Z,31.82
2018-09-19T15:39:10.448Z,31.50
2018-09-19T15:41:39.012Z,31.25
2018-09-19T15:44:07.603Z,31.41
2018-09-19T15:46:36.657Z,32.28
2018-09-19T15:49:05.192Z,32.10
2018-09-19T15:51:33.893Z,32.10
2018-09-19T15:54:02.455Z,31.85
2018-09-19T15:56:31.028Z,32.00
2018-09-19T15:58:59.599Z,32.25
2018-09-19T16:01:28.171Z,33.66
2018-09-19T16:03:56.760Z,33.51
2018-09-19T16:06:25.344Z,32.94
2018-09-19T16:08:53.877Z,32.62
2018-09-19T16:11:22.484Z,33.78
2018-09-19T16:13:51.024Z,33.40
2018-09-19T16:16:19.704Z,33.91
2018-09-19T16:18:48.263Z,35.10
2018-09-19T16:21:16.856Z,34.82
2018-09-19T16:23:45.376Z,35.29
2018-09-19T16:26:13.966Z,37.14
2018-09-19T16:28:42.480Z,36.51
2018-09-19T16:31:11.026Z,36.97
2018-09-19T16:33:39.576Z,38.29
2018-09-19T16:36:08.101Z,39.17
2018-09-19T16:38:36.643Z,40.81
2018-09-19T16:41:05.208Z,40.06
2018-09-19T16:43:33.829Z,39.81
2018-09-19T16:46:02.401Z,39.92
2018-09-19T16:48:31.232Z,40.98
2018-09-19T16:50:59.768Z,42.75
2018-09-19T16:53:28.356Z,43.29
2018-09-19T16:55:56.944Z,43.90
2018-09-19T16:58:25.525Z,45.43
2018-09-19T17:00:54.057Z,46.33
2018-09-19T17:03:22.608Z,47.64
2018-09-19T17:05:51.183Z,49.04
2018-09-19T17:08:19.702Z,49.63
2018-09-19T17:10:48.237Z,50.58
2018-09-19T17:13:17.038Z,51.38
2018-09-19T17:15:46.142Z,52.90
2018-09-19T17:18:14.671Z,53.55
2018-09-19T17:20:43.209Z,54.46
2018-09-19T17:23:11.776Z,55.55
2018-09-19T17:25:40.519Z,55.98
2018-09-19T17:28:09.033Z,56.94
2018-09-19T17:30:37.553Z,57.15
2018-09-19T17:33:06.165Z,58.21
2018-09-19T17:35:34.712Z,58.50
2018-09-19T17:38:03.344Z,59.23
2018-09-19T17:40:31.927Z,59.99
2018-09-19T17:43:00.516Z,60.16
2018-09-19T17:45:29.089Z,60.84
2018-09-19T17:47:57.764Z,61.18
2018-09-19T17:52:54.014Z,61.43
2018-09-19T17:55:22.626Z,61.89
2018-09-19T17:57:51.188Z,62.11
2018-09-19T18:00:19.797Z,62.19
2018-09-19T18:02:48.370Z,62.64
2018-09-19T18:05:16.980Z,62.86
2018-09-19T18:07:45.516Z,63.56
2018-09-19T18:10:14.138Z,63.87
2018-09-19T18:12:42.740Z,63.77
2018-09-19T18:15:11.332Z,64.11
2018-09-19T18:17:39.924Z,64.65
2018-09-19T18:20:09.154Z,65.39
2018-09-19T18:22:37.678Z,65.94
2018-09-19T18:25:06.328Z,66.80
2018-09-19T18:27:35.745Z,67.09
2018-09-19T18:30:04.330Z,67.55
2018-09-19T18:32:32.877Z,67.58
2018-09-19T18:35:01.469Z,67.83
2018-09-19T18:37:30.017Z,67.78
2018-09-19T18:39:58.616Z,68.35
2018-09-19T18:42:27.186Z,68.62
2018-09-19T18:44:55.782Z,69.17
2018-09-19T18:47:24.405Z,69.51
2018-09-19T18:49:53.068Z,70.24
2018-09-19T18:52:21.651Z,70.82
2018-09-19T18:54:50.289Z,70.78
2018-09-19T18:57:18.850Z,72.01
2018-09-19T18:59:47.451Z,72.66
2018-09-19T19:02:17.053Z,72.99
2018-09-19T19:04:45.688Z,72.47
2018-09-19T19:07:14.257Z,72.49
2018-09-19T19:09:42.847Z,72.54
2018-09-19T19:12:11.439Z,71.71
2018-09-19T19:14:40.022Z,71.69
2018-09-19T19:17:08.642Z,71.13
2018-09-19T19:19:37.246Z,71.92
2018-09-19T19:22:05.890Z,71.59
2018-09-19T19:24:34.448Z,71.91
2018-09-19T19:27:03.166Z,71.63
2018-09-19T19:29:31.778Z,71.51
2018-09-19T19:32:00.467Z,72.39
2018-09-19T19:34:29.007Z,72.47
2018-09-19T19:36:57.616Z,72.46
2018-09-19T19:39:26.227Z,72.34
2018-09-19T19:41:55.113Z,73.57
2018-09-19T19:44:23.691Z,74.72
2018-09-19T19:46:52.293Z,75.92
2018-09-19T19:49:20.857Z,76.04
2018-09-19T19:51:49.460Z,76.45
2018-09-19T19:54:18.061Z,75.77
2018-09-19T19:56:46.671Z,75.81
2018-09-19T19:59:15.272Z,75.86
2018-09-19T20:01:43.863Z,75.95
2018-09-19T20:04:12.415Z,76.57
2018-09-19T20:06:41.037Z,76.17
2018-09-19T20:09:09.996Z,75.07
2018-09-19T20:11:39.097Z,75.82
2018-09-19T20:14:07.768Z,75.63
2018-09-19T20:16:36.393Z,76.12
2018-09-19T20:19:04.952Z,75.69
2018-09-19T20:21:35.476Z,76.41
2018-09-19T20:24:04.229Z,76.04
2018-09-19T20:26:32.835Z,76.42
2018-09-19T20:29:01.420Z,76.48
2018-09-19T20:31:30.113Z,76.86
2018-09-19T20:33:58.642Z,76.96
2018-09-19T20:36:27.473Z,76.83
2018-09-19T20:38:56.072Z,77.22
2018-09-19T20:41:25.296Z,77.25
2018-09-19T20:43:53.859Z,77.51
2018-09-19T20:46:22.463Z,77.36
2018-09-19T20:48:51.108Z,77.56
2018-09-19T20:51:19.776Z,76.76
2018-09-19T20:53:48.347Z,77.19
2018-09-19T20:56:17.012Z,77.23
2018-09-19T20:58:45.646Z,77.29
2018-09-19T21:01:14.245Z,77.05
2018-09-19T21:03:42.849Z,77.56
2018-09-19T21:06:12.227Z,77.17
2018-09-19T21:15:42.477Z,80.23
2018-09-19T21:18:11.090Z,80.18
2018-09-19T21:20:39.674Z,80.18
2018-09-19T21:23:08.314Z,80.31
2018-09-19T21:25:36.880Z,80.75
2018-09-19T21:28:05.560Z,79.83
2018-09-19T21:30:34.146Z,79.31
2018-09-19T21:33:02.775Z,78.90
2018-09-19T21:35:31.541Z,78.78
2018-09-19T21:38:00.136Z,78.44
2018-09-19T21:40:28.733Z,79.59
2018-09-19T21:42:57.313Z,79.83
2018-09-19T21:45:25.869Z,80.02
2018-09-19T21:47:54.506Z,79.93
2018-09-19T21:50:23.152Z,80.26
2018-09-19T21:52:51.737Z,81.10
2018-09-19T21:55:20.316Z,81.38
2018-09-19T21:57:48.933Z,82.28
2018-09-19T22:00:17.519Z,82.74
2018-09-19T22:02:46.118Z,81.85
2018-09-19T22:05:14.690Z,80.35
2018-09-19T22:07:43.274Z,80.14
2018-09-19T22:10:11.840Z,79.50
2018-09-19T22:12:40.424Z,79.45
2018-09-19T22:15:09.032Z,79.58
2018-09-19T22:17:37.670Z,79.60
2018-09-19T22:20:06.244Z,79.46
2018-09-19T22:22:34.913Z,79.29
2018-09-19T22:25:03.492Z,79.24
2018-09-19T22:27:32.912Z,79.22
2018-09-19T22:30:01.504Z,79.54
2018-09-19T22:32:30.048Z,79.27
2018-09-19T22:34:58.704Z,79.45
2018-09-19T22:37:27.266Z,78.97
2018-09-19T22:39:55.861Z,78.76
2018-09-19T22:42:24.430Z,78.78
2018-09-19T22:44:53.090Z,79.44
2018-09-19T22:47:21.677Z,79.24
2018-09-19T22:49:50.296Z,79.99
2018-09-19T22:52:18.845Z,79.70
2018-09-19T22:54:47.456Z,79.86
2018-09-19T22:57:16.025Z,80.17
2018-09-19T22:59:44.619Z,80.64
2018-09-19T23:02:13.213Z,79.97
2018-09-19T23:04:41.837Z,79.59
2018-09-19T23:07:10.417Z,79.26
2018-09-19T23:09:39.025Z,79.63
2018-09-19T23:12:07.597Z,79.50
2018-09-19T23:14:36.184Z,79.70
2018-09-19T23:17:04.774Z,79.86
2018-09-19T23:19:33.363Z,79.62
2018-09-19T23:22:02.181Z,80.17
2018-09-19T23:24:30.816Z,80.01
2018-09-19T23:26:59.391Z,79.82
2018-09-19T23:29:28.037Z,78.95
2018-09-19T23:31:56.607Z,80.13
2018-09-19T23:34:25.225Z,80.20
2018-09-19T23:36:53.778Z,80.82
2018-09-19T23:39:22.394Z,80.92
2018-09-19T23:41:50.957Z,81.02
2018-09-19T23:44:19.559Z,79.85
2018-09-19T23:46:48.149Z,79.48
2018-09-19T23:49:16.742Z,79.18
2018-09-19T23:51:45.290Z,79.24
2018-09-19T23:54:13.893Z,79.88
2018-09-19T23:56:42.452Z,79.89
2018-09-19T23:59:11.096Z,79.89
